Hovedside
METAR-TAF:

METAR-TAF

Lufthavner :

Flystasjon

Ämari, Estland

breddegrad: 59-15-44N, lengdegrad: 24-13-07E, høyde over havet: 20 m

Gjeldene værobservasjon

Denne rapporten ble laget for 28 minutter siden, klokken 06:50 UTC
Vind 6 kt fra Sør-sørvest
Temperatur 15°C
Luftfuktighet 44%
Trykk 1030 hPa
Sikt 10 km eller mer
ingen skyer under 1500 m og ingen bygeskyer

METAR: EEEI 230650Z 21006KT CAVOK 15/03 Q1030 NOSIG

Tid: 10:18 (07:18 UTC)

Varsel

Denne rapporten ble laget for 7 timer og 48 minutter siden, klokken 23:30 UTC
Varsel gyldig fra 23. klokken 00 UTC til 23. klokken 24 UTC
Vind 2 kt fra skiftende retning
Sikt 10 km eller mer
ingen skyer under 1500 m og ingen bygeskyer
Blir
fra 23. klokken 06 UTC til 23. klokken 08 UTC
Vind 8 kt fra Vest-sørvest
Blir
fra 23. klokken 17 UTC til 23. klokken 19 UTC
Vind 2 kt fra skiftende retning

TAF: EEEI 222330Z 2300/2324 VRB02KT CAVOK BECMG 2306/2308 24008KT BECMG 2317/2319 VRB02KT

Værobservasjoner og værvarsel for over 4000 flyplasser (METAR- og TAF-rapporter).

Tilgjengelige stasjoner er representert av de røde og gule prikkene på kartet.

Hold musepekeren over prikken for å se navnet på stasjonen.

Klikk så for å se værobservasjoner og -varsler.

For å forandre kartet kan du klikke på den grønne knappen med svart kryss for å zoome inn, på den grønne knappen med strek for å zoome ut, eller på de grønne pilene for å se tilstøtende kart.


METAR-TAF: